createdAt,value
2023-08-26T00:00:22.867Z,14.23
2023-08-26T00:10:28.709Z,16.52
2023-08-26T00:20:33.230Z,15.38
2023-08-26T00:30:35.488Z,17.25
2023-08-26T00:40:37.928Z,14.15
2023-08-26T00:50:41.303Z,15.93
2023-08-26T01:00:49.308Z,14.50
2023-08-26T01:10:53.844Z,8.52
2023-08-26T01:20:58.917Z,8.32
2023-08-26T01:31:04.255Z,7.82
2023-08-26T01:41:07.318Z,6.70
2023-08-26T01:51:09.721Z,5.03
2023-08-26T02:01:14.261Z,4.57
2023-08-26T02:11:21.177Z,5.35
2023-08-26T02:21:27.975Z,7.82
2023-08-26T02:31:32.845Z,5.38
2023-08-26T02:41:37.538Z,7.95
2023-08-26T02:51:39.807Z,7.68
2023-08-26T03:01:43.958Z,6.40
2023-08-26T03:11:49.788Z,8.77
2023-08-26T03:21:52.143Z,8.02
2023-08-26T03:31:55.079Z,5.70
2023-08-26T03:41:57.321Z,5.57
2023-08-26T03:52:07.983Z,6.35
2023-08-26T04:02:10.522Z,9.32
2023-08-26T04:12:14.898Z,6.93
2023-08-26T04:22:17.128Z,6.25
2023-08-26T04:32:21.586Z,6.65
2023-08-26T04:42:29.298Z,5.90
2023-08-26T04:52:34.339Z,6.82
2023-08-26T05:02:36.861Z,6.38
2023-08-26T05:12:39.518Z,6.45
2023-08-26T05:22:44.218Z,9.10
2023-08-26T05:32:46.570Z,6.78
2023-08-26T05:42:49.200Z,7.75
2023-08-26T05:52:51.582Z,6.60
2023-08-26T06:02:55.601Z,8.73
2023-08-26T06:13:04.104Z,8.85
2023-08-26T06:23:09.493Z,7.60
2023-08-26T06:33:16.360Z,8.93
2023-08-26T06:43:19.026Z,7.32
2023-08-26T06:53:24.214Z,7.55
2023-08-26T07:03:28.699Z,10.20
2023-08-26T07:13:30.926Z,9.00
2023-08-26T07:23:33.618Z,10.15
2023-08-26T07:33:36.115Z,7.88
2023-08-26T07:43:40.878Z,9.57
2023-08-26T07:53:45.459Z,8.65
2023-08-26T08:03:53.154Z,8.82
2023-08-26T08:13:57.800Z,8.07
2023-08-26T08:24:03.305Z,7.97
2023-08-26T08:34:05.760Z,7.43
2023-08-26T08:44:14.833Z,8.65
2023-08-26T08:54:17.358Z,6.78
2023-08-26T09:04:19.606Z,5.75
2023-08-26T09:14:24.812Z,5.82
2023-08-26T09:24:27.115Z,4.30
2023-08-26T09:34:34.338Z,7.07
2023-08-26T09:44:38.685Z,4.72
2023-08-26T09:54:42.493Z,4.63
2023-08-26T10:04:50.016Z,4.80
2023-08-26T10:14:55.157Z,6.30
2023-08-26T10:24:57.504Z,3.13
2023-08-26T10:35:06.768Z,4.65
2023-08-26T10:45:18.476Z,4.30
2023-08-26T10:55:32.622Z,4.30
2023-08-26T11:05:43.440Z,3.88
2023-08-26T11:15:45.819Z,4.60
2023-08-26T11:25:50.283Z,5.40
2023-08-26T11:36:08.385Z,5.32
2023-08-26T11:46:12.509Z,3.42
2023-08-26T11:56:17.182Z,4.70
2023-08-26T12:06:20.693Z,4.20
2023-08-26T12:16:28.156Z,3.92
2023-08-26T12:26:33.895Z,3.25
2023-08-26T12:36:36.333Z,5.70
2023-08-26T12:46:40.393Z,4.10
2023-08-26T12:56:46.215Z,4.03
2023-08-26T13:06:48.629Z,2.72
2023-08-26T13:16:53.209Z,3.10
2023-08-26T13:26:58.762Z,2.95
2023-08-26T13:37:04.465Z,4.03
2023-08-26T13:47:09.096Z,3.05
2023-08-26T13:57:12.058Z,5.57
2023-08-26T14:07:18.981Z,3.20
2023-08-26T14:17:21.266Z,4.07
2023-08-26T14:27:26.082Z,3.30
2023-08-26T14:37:36.235Z,4.97
2023-08-26T14:47:41.108Z,5.95
2023-08-26T14:57:45.281Z,4.20
2023-08-26T15:07:50.707Z,4.05
2023-08-26T15:17:54.358Z,6.60
2023-08-26T15:27:59.482Z,4.63
2023-08-26T15:38:04.267Z,4.57
2023-08-26T15:48:10.563Z,5.28
2023-08-26T15:58:22.597Z,7.70
2023-08-26T16:08:30.491Z,9.57
2023-08-26T16:18:35.568Z,6.82
2023-08-26T16:28:39.125Z,5.30
2023-08-26T16:38:45.761Z,5.53
2023-08-26T16:48:53.434Z,7.53
2023-08-26T16:59:00.648Z,6.80
2023-08-26T17:09:07.000Z,7.88
2023-08-26T17:19:11.762Z,4.75
2023-08-26T17:29:16.214Z,5.15
2023-08-26T17:39:20.935Z,5.72
2023-08-26T17:49:28.545Z,6.75
2023-08-26T17:59:34.063Z,4.85
2023-08-26T18:09:42.301Z,6.10
2023-08-26T18:19:52.085Z,6.60
2023-08-26T18:29:59.531Z,6.45
2023-08-26T18:40:01.772Z,8.65
2023-08-26T18:50:07.812Z,9.23
2023-08-26T19:00:17.001Z,7.15
2023-08-26T19:10:19.556Z,10.73
2023-08-26T19:20:25.196Z,8.55
2023-08-26T19:30:29.877Z,7.35
2023-08-26T19:40:37.898Z,6.40
2023-08-26T19:50:42.028Z,6.78
2023-08-26T20:00:48.891Z,12.10
2023-08-26T20:10:53.482Z,9.15
2023-08-26T20:21:05.172Z,8.63
2023-08-26T20:31:12.365Z,7.03
2023-08-26T20:41:15.213Z,13.40
2023-08-26T20:51:18.081Z,9.00
2023-08-26T21:01:24.788Z,9.00
2023-08-26T21:11:30.955Z,13.60
2023-08-26T21:21:37.301Z,8.40
2023-08-26T21:31:47.269Z,8.00
2023-08-26T21:41:52.652Z,9.77
2023-08-26T21:51:56.247Z,11.57
2023-08-26T22:02:02.120Z,10.30
2023-08-26T22:12:09.420Z,12.35
2023-08-26T22:22:19.746Z,11.75
2023-08-26T22:32:28.802Z,10.43
2023-08-26T22:42:35.778Z,10.95
2023-08-26T22:52:41.003Z,12.45
2023-08-26T23:02:55.406Z,11.55
2023-08-26T23:13:00.913Z,8.93
2023-08-26T23:23:06.778Z,7.70
2023-08-26T23:33:11.569Z,9.25
2023-08-26T23:43:20.923Z,10.40
2023-08-26T23:53:23.239Z,10.90
